Time;durP1;ratioP1;P1;durP2;ratioP2;P2;SDS_P1;SDS_P2;PMS_P1;PMS_P2;Temp;Humidity;BMP_temperature;BMP_pressure;BME280_temperature;BME280_humidity;BME280_pressure;Samples;Min_cycle;Max_cycle;Signal;HPM_P1;HPM_P2
2022/05/25 00:00:20;;;;;;;6.35;3.55;;;11.60;99.90;;;;;;5033491;28;20043;-79
2022/05/25 00:02:45;;;;;;;5.95;3.80;;;11.60;99.90;;;;;;5028833;28;20033;-79
2022/05/25 00:05:13;;;;;;;6.43;3.17;;;11.60;99.90;;;;;;5042719;28;20068;-79
2022/05/25 00:07:39;;;;;;;7.00;3.55;;;11.50;99.90;;;;;;5034508;28;20140;-79
2022/05/25 00:10:05;;;;;;;5.45;3.35;;;11.40;99.90;;;;;;5034167;28;20071;-79
2022/05/25 00:12:31;;;;;;;6.00;3.45;;;11.50;99.90;;;;;;5051354;28;20068;-79
2022/05/25 00:14:57;;;;;;;5.78;3.20;;;11.50;99.90;;;;;;5034267;28;20146;-79
2022/05/25 00:17:23;;;;;;;4.85;3.05;;;11.40;99.90;;;;;;5050572;28;20496;-79
2022/05/25 00:20:00;;;;;;;5.40;3.20;;;11.50;99.90;;;;;;5033927;28;20114;-79
2022/05/25 00:22:37;;;;;;;6.88;3.50;;;11.40;99.90;;;;;;5019781;28;20396;-79
2022/05/25 00:25:03;;;;;;;5.72;3.10;;;11.40;99.90;;;;;;5051150;28;20098;-79
2022/05/25 00:27:28;;;;;;;5.88;3.03;;;11.30;99.90;;;;;;5034356;28;20044;-79
2022/05/25 00:29:54;;;;;;;6.15;4.00;;;11.30;99.90;;;;;;5033801;28;20073;-79
2022/05/25 00:32:21;;;;;;;5.63;3.25;;;11.30;99.90;;;;;;5017762;28;20049;-79
2022/05/25 00:34:47;;;;;;;6.68;4.10;;;11.20;99.90;;;;;;5034088;28;20048;-79
2022/05/25 00:37:12;;;;;;;7.85;5.20;;;11.20;99.90;;;;;;5033353;28;20502;-79
2022/05/25 00:39:40;;;;;;;7.00;3.30;;;11.20;99.90;;;;;;5034104;28;20041;-79
2022/05/25 00:42:06;;;;;;;5.85;3.90;;;11.20;99.90;;;;;;5050819;28;20091;-79
2022/05/25 00:44:32;;;;;;;5.70;4.03;;;11.10;99.90;;;;;;5033789;28;20051;-79
2022/05/25 00:46:58;;;;;;;6.40;3.95;;;11.10;99.90;;;;;;5049997;28;20063;-79
2022/05/25 00:49:28;;;;;;;8.02;5.82;;;11.10;99.90;;;;;;5034051;28;20099;-79
2022/05/25 00:52:01;;;;;;;8.57;5.65;;;11.00;99.90;;;;;;5050655;28;20037;-79
2022/05/25 00:54:31;;;;;;;6.55;4.90;;;11.00;99.90;;;;;;5050650;28;20167;-79
2022/05/25 00:57:01;;;;;;;8.88;6.78;;;10.90;99.90;;;;;;5033873;28;20088;-79
2022/05/25 00:59:31;;;;;;;6.85;4.80;;;10.80;99.90;;;;;;5033413;28;20123;-79
2022/05/25 01:01:58;;;;;;;6.55;4.60;;;10.80;99.90;;;;;;5030088;28;20592;-79
2022/05/25 01:04:25;;;;;;;7.40;5.18;;;10.70;99.90;;;;;;5011809;28;20385;-79
2022/05/25 01:07:00;;;;;;;5.57;3.60;;;10.60;99.90;;;;;;5033823;28;20103;-79
2022/05/25 01:09:52;;;;;;;5.95;3.58;;;10.60;99.90;;;;;;5051085;28;20037;-79
2022/05/25 01:12:34;;;;;;;;;;;10.60;99.90;;;;;;5035095;28;20041;-79
2022/05/25 01:15:18;;;;;;;7.15;4.63;;;10.60;99.90;;;;;;5033731;28;19971;-79
2022/05/25 01:17:51;;;;;;;5.90;3.92;;;10.60;99.90;;;;;;5033983;28;20068;-79
2022/05/25 01:20:32;;;;;;;5.88;3.60;;;10.60;99.90;;;;;;5033653;28;20136;-79
2022/05/25 01:23:14;;;;;;;5.68;3.40;;;10.60;99.90;;;;;;5037913;28;20462;-79
2022/05/25 01:26:09;;;;;;;6.00;3.33;;;10.60;99.90;;;;;;5037638;28;20535;-79
2022/05/25 01:29:04;;;;;;;7.47;6.28;;;10.50;99.90;;;;;;5054088;28;20043;-79
2022/05/25 01:31:41;;;;;;;8.40;5.53;;;10.50;99.90;;;;;;5051068;28;20041;-79
2022/05/25 01:34:19;;;;;;;6.35;4.10;;;10.50;99.90;;;;;;5028924;28;20091;-78
2022/05/25 01:37:00;;;;;;;6.18;4.55;;;10.40;99.90;;;;;;5035977;28;20076;-78
2022/05/25 01:39:32;;;;;;;9.40;6.60;;;10.40;99.90;;;;;;5034268;28;20107;-78
2022/05/25 01:42:20;;;;;;;8.25;6.90;;;10.20;99.90;;;;;;5070120;28;20128;-78
2022/05/25 01:44:51;;;;;;;7.13;4.95;;;10.20;99.90;;;;;;5037879;28;20036;-78
2022/05/25 01:47:18;;;;;;;10.23;7.45;;;10.20;99.90;;;;;;5036981;28;20048;-78
2022/05/25 01:50:11;;;;;;;6.88;4.53;;;10.10;99.90;;;;;;5037763;28;20041;-78
2022/05/25 01:52:42;;;;;;;9.20;6.10;;;10.10;99.90;;;;;;5054233;28;20045;-78
2022/05/25 01:55:14;;;;;;;7.45;5.60;;;10.10;99.90;;;;;;5054437;28;20037;-78
2022/05/25 01:57:44;;;;;;;8.07;6.25;;;10.10;99.90;;;;;;5057587;28;20527;-78
2022/05/25 02:00:25;;;;;;;6.13;4.15;;;10.00;99.90;;;;;;5039420;28;20033;-78
2022/05/25 02:05:39;;;;;;;8.25;5.38;;;10.00;99.90;;;;;;5042094;28;20053;-78
2022/05/25 02:08:27;;;;;;;6.85;5.15;;;10.00;99.90;;;;;;5026295;28;20037;-78
2022/05/25 02:11:19;;;;;;;9.25;6.32;;;10.00;99.90;;;;;;5037383;28;20052;-78
2022/05/25 02:14:10;;;;;;;10.48;7.72;;;10.00;99.90;;;;;;5036945;28;20056;-78
2022/05/25 02:17:06;;;;;;;7.18;4.43;;;10.00;99.90;;;;;;5035887;28;20077;-78
2022/05/25 02:19:35;;;;;;;11.95;8.05;;;9.90;99.90;;;;;;5053927;28;20380;-78
2022/05/25 02:22:33;;;;;;;10.40;9.30;;;9.90;99.90;;;;;;5019631;28;20037;-78
2022/05/25 02:25:04;;;;;;;8.75;5.13;;;9.90;99.90;;;;;;5036569;28;20052;-78
2022/05/25 02:27:53;;;;;;;7.50;5.18;;;9.90;99.90;;;;;;5053047;28;20076;-78
2022/05/25 02:30:23;;;;;;;9.90;7.47;;;9.90;99.90;;;;;;5036810;28;20064;-78
2022/05/25 02:33:00;;;;;;;13.05;9.07;;;9.80;99.90;;;;;;5035552;28;20037;-78
2022/05/25 02:35:26;;;;;;;10.98;7.63;;;9.90;99.90;;;;;;5053156;28;20098;-78
2022/05/25 02:37:56;;;;;;;6.80;4.53;;;9.80;99.90;;;;;;5052966;28;20040;-78
2022/05/25 02:40:22;;;;;;;7.03;5.03;;;9.90;99.90;;;;;;5053274;28;20029;-78
2022/05/25 02:42:47;;;;;;;9.68;8.05;;;9.80;99.90;;;;;;5052948;28;20052;-78
2022/05/25 02:45:13;;;;;;;7.82;6.65;;;9.80;99.90;;;;;;5036462;28;20518;-78
2022/05/25 02:47:40;;;;;;;8.15;5.07;;;9.80;99.90;;;;;;5019249;28;20043;-78
2022/05/25 02:50:06;;;;;;;9.57;7.90;;;9.80;99.90;;;;;;5036568;28;20033;-78
2022/05/25 02:52:33;;;;;;;12.77;10.95;;;9.80;99.90;;;;;;5019777;28;20435;-78
2022/05/25 02:54:59;;;;;;;9.65;7.72;;;9.80;99.90;;;;;;5036509;28;20037;-79
2022/05/25 02:57:24;;;;;;;13.10;10.80;;;9.70;99.90;;;;;;5052879;28;20401;-79
2022/05/25 02:59:50;;;;;;;9.45;6.00;;;9.70;99.90;;;;;;5036259;28;20043;-79
2022/05/25 03:02:16;;;;;;;9.38;5.97;;;9.60;99.90;;;;;;5035473;28;20051;-79
2022/05/25 03:04:42;;;;;;;7.80;6.05;;;9.60;99.90;;;;;;5052874;28;20048;-79
2022/05/25 03:07:09;;;;;;;9.02;7.30;;;9.60;99.90;;;;;;5019549;28;20511;-79
2022/05/25 03:09:36;;;;;;;11.35;8.85;;;9.60;99.90;;;;;;5052590;28;20094;-79
2022/05/25 03:12:06;;;;;;;9.27;6.75;;;9.50;99.90;;;;;;5037367;28;20122;-79
2022/05/25 03:14:32;;;;;;;8.07;6.30;;;9.60;99.90;;;;;;5054044;28;20033;-79
2022/05/25 03:17:02;;;;;;;9.70;7.78;;;9.60;99.90;;;;;;5036637;28;20044;-79
2022/05/25 03:19:27;;;;;;;11.02;9.80;;;9.60;99.90;;;;;;5037313;28;20076;-79
2022/05/25 03:21:53;;;;;;;10.52;8.10;;;9.60;99.90;;;;;;5036427;28;20389;-79
2022/05/25 03:24:19;;;;;;;11.95;9.20;;;9.80;99.90;;;;;;5053649;28;20041;-79
2022/05/25 03:26:44;;;;;;;11.88;8.38;;;9.60;99.90;;;;;;5036922;28;20090;-79
2022/05/25 03:29:11;;;;;;;11.68;10.48;;;9.60;99.90;;;;;;5053225;28;20041;-79
2022/05/25 03:31:37;;;;;;;14.57;12.00;;;9.50;99.90;;;;;;5052653;28;20041;-79
2022/05/25 03:34:03;;;;;;;13.95;12.05;;;9.50;99.90;;;;;;5037149;28;20502;-79
2022/05/25 03:36:28;;;;;;;12.45;11.10;;;9.50;99.90;;;;;;5053399;28;20044;-79
2022/05/25 03:38:54;;;;;;;13.52;11.05;;;9.40;99.90;;;;;;5053703;28;20037;-79
2022/05/25 03:41:21;;;;;;;14.30;11.50;;;9.50;99.90;;;;;;5053333;28;20053;-79
2022/05/25 03:43:47;;;;;;;14.73;13.15;;;9.40;99.90;;;;;;5036345;28;20037;-79
2022/05/25 03:46:13;;;;;;;12.88;11.48;;;9.40;99.90;;;;;;5036116;28;20484;-79
2022/05/25 03:48:39;;;;;;;10.60;9.32;;;9.40;99.90;;;;;;5053260;28;20094;-79
2022/05/25 03:51:04;;;;;;;11.00;9.18;;;9.30;99.90;;;;;;5036600;28;20480;-79
2022/05/25 03:53:30;;;;;;;11.55;9.60;;;9.40;99.90;;;;;;5036847;28;20419;-79
2022/05/25 03:55:56;;;;;;;11.00;9.73;;;9.50;99.90;;;;;;5053225;28;20045;-79
2022/05/25 03:58:21;;;;;;;17.23;14.20;;;9.40;99.90;;;;;;5053106;28;20045;-79
2022/05/25 04:00:47;;;;;;;15.00;13.13;;;9.50;99.90;;;;;;5035281;28;20083;-79
2022/05/25 04:03:15;;;;;;;16.33;14.63;;;9.40;99.90;;;;;;4999360;28;20111;-79
2022/05/25 04:05:42;;;;;;;15.43;13.75;;;9.40;99.90;;;;;;5032460;28;20050;-79
2022/05/25 04:08:08;;;;;;;15.35;13.23;;;9.40;99.90;;;;;;5033135;28;20120;-80
2022/05/25 04:10:34;;;;;;;15.13;13.20;;;9.40;99.90;;;;;;5017113;28;20426;-79
2022/05/25 04:13:01;;;;;;;13.35;11.77;;;9.40;99.90;;;;;;5032462;28;20037;-79
2022/05/25 04:15:29;;;;;;;13.25;11.65;;;9.40;99.90;;;;;;5033519;28;20048;-79
2022/05/25 04:17:55;;;;;;;15.88;13.30;;;9.40;99.90;;;;;;5030766;28;20415;-79
2022/05/25 04:20:22;;;;;;;17.95;15.45;;;9.50;99.90;;;;;;5024289;28;20064;-79
2022/05/25 04:22:48;;;;;;;19.40;15.75;;;9.50;99.90;;;;;;5051833;28;20041;-80
2022/05/25 04:25:17;;;;;;;21.45;18.42;;;9.50;99.90;;;;;;5011835;28;20045;-80
2022/05/25 04:27:44;;;;;;;22.20;18.65;;;9.50;99.90;;;;;;5042898;28;20195;-79
2022/05/25 04:30:14;;;;;;;20.77;16.70;;;9.60;99.90;;;;;;5004208;28;20388;-79
2022/05/25 04:32:40;;;;;;;22.17;17.25;;;9.60;99.90;;;;;;5050374;28;20041;-79
2022/05/25 04:35:07;;;;;;;24.40;21.63;;;9.60;99.90;;;;;;5052081;28;20037;-80
2022/05/25 04:40:38;;;;;;;23.13;20.10;;;9.60;99.90;;;;;;5038823;28;20053;-79
2022/05/25 04:43:10;;;;;;;21.27;19.00;;;9.70;99.90;;;;;;5053081;28;20087;-79
2022/05/25 04:45:39;;;;;;;;;;;9.70;99.90;;;;;;5036540;28;20044;-79
2022/05/25 04:48:05;;;;;;;22.58;18.83;;;9.70;99.90;;;;;;5052554;28;19923;-79
2022/05/25 04:50:34;;;;;;;25.50;20.95;;;9.70;99.90;;;;;;5053233;28;20033;-80
2022/05/25 04:53:02;;;;;;;22.95;20.38;;;9.80;99.90;;;;;;5052431;28;20037;-79
2022/05/25 04:58:21;;;;;;;25.88;22.13;;;10.10;99.90;;;;;;5056647;28;20503;-81
2022/05/25 05:00:47;;;;;;;23.73;20.92;;;10.70;99.90;;;;;;5061779;28;20041;-81
2022/05/25 05:03:13;;;;;;;22.65;18.50;;;11.00;99.90;;;;;;5075822;28;20043;-81
2022/05/25 05:05:38;;;;;;;19.38;16.65;;;11.50;99.90;;;;;;5059751;28;20426;-81
2022/05/25 05:08:05;;;;;;;18.38;16.40;;;12.20;99.90;;;;;;5042972;28;20387;-81
2022/05/25 05:10:31;;;;;;;18.08;14.10;;;12.90;99.90;;;;;;5037507;28;20036;-81
2022/05/25 05:12:57;;;;;;;17.38;15.35;;;13.40;99.90;;;;;;5034392;28;20389;-81
2022/05/25 05:15:23;;;;;;;15.02;13.00;;;13.60;99.90;;;;;;5018989;28;20097;-81
2022/05/25 05:17:48;;;;;;;15.88;14.13;;;13.90;99.90;;;;;;5018680;28;20037;-81
2022/05/25 05:20:14;;;;;;;15.68;13.20;;;14.20;99.90;;;;;;5028548;28;20174;-81
2022/05/25 05:22:40;;;;;;;14.80;13.15;;;14.50;99.90;;;;;;5012850;28;20048;-81
2022/05/25 05:25:07;;;;;;;13.43;11.10;;;14.80;99.90;;;;;;5019673;28;20531;-81
2022/05/25 05:27:34;;;;;;;15.02;12.07;;;15.40;99.90;;;;;;5019460;28;20447;-81
2022/05/25 05:30:03;;;;;;;12.52;10.98;;;15.80;99.90;;;;;;5031981;28;20041;-81
2022/05/25 05:32:30;;;;;;;15.10;11.80;;;16.60;99.90;;;;;;5028625;28;20037;-81
2022/05/25 05:34:57;;;;;;;12.80;10.80;;;17.00;99.90;;;;;;5019713;28;20451;-81
2022/05/25 05:37:34;;;;;;;14.05;11.15;;;17.10;99.90;;;;;;5019304;28;20046;-81
2022/05/25 05:40:02;;;;;;;13.15;10.63;;;17.30;99.90;;;;;;5036178;28;20091;-81
2022/05/25 05:42:28;;;;;;;13.88;10.95;;;17.40;99.90;;;;;;5047907;28;20496;-81
2022/05/25 05:45:04;;;;;;;12.52;9.73;;;17.60;99.90;;;;;;5039255;28;20044;-82
2022/05/25 05:47:51;;;;;;;14.45;9.65;;;18.00;99.90;;;;;;5054788;28;20051;-82
2022/05/25 05:50:20;;;;;;;11.77;8.93;;;18.30;99.90;;;;;;5037285;28;20040;-82
2022/05/25 05:52:47;;;;;;;12.10;8.32;;;18.60;99.90;;;;;;5039084;28;20573;-82
2022/05/25 05:55:13;;;;;;;12.77;9.23;;;19.30;99.90;;;;;;5055519;28;20040;-80
2022/05/25 05:57:39;;;;;;;12.68;9.57;;;19.70;99.90;;;;;;5022021;28;20033;-80
2022/05/25 06:00:06;;;;;;;11.07;8.85;;;19.80;99.90;;;;;;5063602;28;20441;-80
2022/05/25 06:02:32;;;;;;;11.75;9.00;;;19.50;99.90;;;;;;5074716;28;20096;-80
2022/05/25 06:04:58;;;;;;;11.20;8.93;;;19.60;99.90;;;;;;5075376;28;20041;-80
2022/05/25 06:07:24;;;;;;;12.30;8.60;;;19.80;99.90;;;;;;5057764;28;20045;-80
2022/05/25 06:09:49;;;;;;;12.55;8.60;;;19.80;99.90;;;;;;5032146;28;20521;-78
2022/05/25 06:12:15;;;;;;;13.18;8.95;;;20.20;99.90;;;;;;4984706;28;20052;-78
2022/05/25 06:14:41;;;;;;;13.18;9.25;;;19.70;99.90;;;;;;5033811;28;20033;-78
2022/05/25 06:19:51;;;;;;;12.90;9.50;;;19.90;99.80;;;;;;5033314;28;20061;-78
2022/05/25 06:22:20;;;;;;;12.57;9.27;;;19.80;99.90;;;;;;5016772;28;20472;-79
2022/05/25 06:24:49;;;;;;;13.15;9.23;;;20.00;99.90;;;;;;5017388;28;20481;-78
2022/05/25 06:27:15;;;;;;;12.18;9.40;;;19.90;99.90;;;;;;5048798;28;20052;-79
2022/05/25 06:29:43;;;;;;;11.90;9.85;;;19.80;99.90;;;;;;5034802;28;20045;-79
2022/05/25 06:32:11;;;;;;;13.75;9.35;;;20.10;99.90;;;;;;5032400;28;20044;-79
2022/05/25 06:34:39;;;;;;;13.27;9.88;;;19.90;99.90;;;;;;5016922;28;20419;-78
2022/05/25 06:37:05;;;;;;;12.13;9.43;;;19.80;99.90;;;;;;5049828;28;20076;-78
2022/05/25 06:39:37;;;;;;;12.48;9.77;;;19.30;99.90;;;;;;5050989;28;20128;-78
2022/05/25 06:42:05;;;;;;;14.98;11.18;;;19.10;99.90;;;;;;5034639;28;20373;-78
2022/05/25 06:44:31;;;;;;;14.05;10.30;;;18.70;99.90;;;;;;5051635;28;20074;-78
2022/05/25 06:46:56;;;;;;;11.85;9.02;;;18.70;99.90;;;;;;5051858;28;20419;-79
2022/05/25 06:49:22;;;;;;;13.93;10.15;;;18.50;99.90;;;;;;5037502;28;20120;-81
2022/05/25 06:51:48;;;;;;;16.42;10.93;;;19.10;99.90;;;;;;5054017;28;20033;-81
2022/05/25 06:54:16;;;;;;;12.88;9.80;;;19.70;99.90;;;;;;5054522;28;20389;-81
2022/05/25 06:56:41;;;;;;;12.80;9.35;;;19.90;99.90;;;;;;5037727;28;20076;-81
2022/05/25 06:59:08;;;;;;;14.30;9.88;;;19.80;99.90;;;;;;5037608;28;20041;-81
2022/05/25 07:01:35;;;;;;;14.05;9.52;;;19.70;99.90;;;;;;5037008;28;20397;-81
2022/05/25 07:04:01;;;;;;;12.00;9.27;;;19.70;99.90;;;;;;5054296;28;20049;-81
2022/05/25 07:06:27;;;;;;;12.55;9.30;;;20.00;99.90;;;;;;5052974;28;20135;-81
2022/05/25 07:08:54;;;;;;;13.25;9.32;;;20.00;99.90;;;;;;5037201;28;20075;-80
2022/05/25 07:11:20;;;;;;;12.93;9.05;;;20.30;99.90;;;;;;5037482;28;20714;-79
2022/05/25 07:13:49;;;;;;;12.63;9.18;;;20.40;99.70;;;;;;5054378;28;20045;-88
2022/05/25 07:16:18;;;;;;;12.07;9.20;;;20.00;98.80;;;;;;5052539;28;20041;-84
2022/05/25 07:18:45;;;;;;;12.60;8.93;;;19.80;99.90;;;;;;5037707;28;20481;-85
2022/05/25 07:21:17;;;;;;;11.10;8.05;;;20.10;99.90;;;;;;5053946;28;20052;-85
2022/05/25 07:23:45;;;;;;;12.45;8.20;;;20.10;99.80;;;;;;5054187;28;20041;-85
2022/05/25 07:26:12;;;;;;;11.75;8.05;;;20.20;99.90;;;;;;5037135;28;20041;-84
2022/05/25 07:28:38;;;;;;;12.60;8.55;;;20.40;99.90;;;;;;5020826;28;20047;-86
2022/05/25 07:31:26;;;;;;;12.45;8.05;;;20.90;99.20;;;;;;5003999;28;20037;-86
2022/05/25 07:34:06;;;;;;;12.40;7.15;;;21.00;99.50;;;;;;5037256;28;20041;-85
2022/05/25 07:36:33;;;;;;;10.63;6.22;;;21.50;95.80;;;;;;5037198;28;20037;-86
2022/05/25 07:39:03;;;;;;;9.25;5.95;;;21.60;93.90;;;;;;5023255;28;20400;-86
2022/05/25 07:41:30;;;;;;;9.70;5.85;;;21.40;93.60;;;;;;5017546;28;20489;-86
2022/05/25 07:43:57;;;;;;;10.07;6.50;;;21.90;93.20;;;;;;5000288;28;20041;-86
2022/05/25 07:46:26;;;;;;;10.55;5.65;;;22.00;90.70;;;;;;5000610;28;20516;-86
2022/05/25 07:48:52;;;;;;;11.57;5.55;;;22.10;91.40;;;;;;5017288;28;20054;-86
2022/05/25 07:51:19;;;;;;;9.00;5.95;;;22.00;90.30;;;;;;5000664;28;20033;-86
2022/05/25 07:53:57;;;;;;;8.85;5.45;;;22.10;88.40;;;;;;5033879;28;20053;-86
2022/05/25 07:56:35;;;;;;;9.02;5.60;;;22.30;88.20;;;;;;4987911;28;20038;-86
2022/05/25 07:59:03;;;;;;;10.50;5.60;;;22.00;90.20;;;;;;5017305;28;20041;-86
2022/05/25 08:07:06;;;;;;;7.90;5.03;;;21.50;91.20;;;;;;5019367;28;20100;-84
2022/05/25 08:09:33;;;;;;;8.82;4.95;;;21.60;93.80;;;;;;5033272;28;20038;-84
2022/05/25 08:11:59;;;;;;;10.35;4.95;;;21.70;93.70;;;;;;5016923;28;20042;-84
2022/05/25 08:14:26;;;;;;;7.88;4.72;;;21.80;93.00;;;;;;5017395;28;20034;-84
2022/05/25 08:16:53;;;;;;;7.20;4.18;;;21.70;87.30;;;;;;5016413;28;20048;-84
2022/05/25 08:19:19;;;;;;;7.25;4.93;;;21.40;90.90;;;;;;5017001;28;20084;-84
2022/05/25 08:21:47;;;;;;;8.00;4.38;;;21.30;91.70;;;;;;5016460;28;20042;-83
2022/05/25 08:24:13;;;;;;;7.82;4.70;;;21.30;92.10;;;;;;5033660;28;20031;-83
2022/05/25 08:26:39;;;;;;;7.45;4.78;;;21.20;91.90;;;;;;5016620;28;20045;-83
2022/05/25 08:29:05;;;;;;;8.25;4.65;;;21.20;91.40;;;;;;4984068;28;20447;-83
2022/05/25 08:31:31;;;;;;;8.40;4.80;;;21.20;93.50;;;;;;5018698;28;20067;-83
2022/05/25 08:33:57;;;;;;;7.50;4.28;;;21.30;93.40;;;;;;5004522;28;20041;-83
2022/05/25 08:36:23;;;;;;;7.53;4.28;;;21.60;93.90;;;;;;5020191;28;20042;-83
2022/05/25 08:38:48;;;;;;;7.30;4.45;;;21.60;92.00;;;;;;5020585;28;20048;-83
2022/05/25 08:41:14;;;;;;;8.13;4.40;;;21.50;92.80;;;;;;5004531;28;20103;-83
2022/05/25 08:43:47;;;;;;;9.32;3.80;;;21.40;94.30;;;;;;5004330;28;20063;-83
2022/05/25 08:46:19;;;;;;;6.68;3.72;;;21.70;93.10;;;;;;5036088;28;20041;-83
2022/05/25 08:48:45;;;;;;;9.60;4.13;;;21.80;89.70;;;;;;5037015;28;20029;-83
2022/05/25 08:51:15;;;;;;;7.18;4.03;;;21.70;89.70;;;;;;5020202;28;20033;-83
2022/05/25 08:53:42;;;;;;;7.88;3.83;;;21.60;88.80;;;;;;5037153;28;20392;-83
2022/05/25 08:56:17;;;;;;;6.40;3.42;;;21.50;90.00;;;;;;5020431;28;20539;-83
2022/05/25 08:58:52;;;;;;;6.43;3.10;;;21.20;90.20;;;;;;5020414;28;20041;-83
2022/05/25 09:02:08;;;;;;;7.00;3.65;;;21.30;88.90;;;;;;5035948;28;20076;-83
2022/05/25 09:04:39;;;;;;;6.60;3.55;;;21.20;89.40;;;;;;5033487;28;20050;-83
2022/05/25 09:07:42;;;;;;;7.40;3.53;;;21.20;83.60;;;;;;5036581;28;20045;-83
2022/05/25 09:10:10;;;;;;;6.65;3.20;;;20.80;85.90;;;;;;5036889;28;20524;-83
2022/05/25 09:12:42;;;;;;;7.13;3.17;;;20.50;89.70;;;;;;5020001;28;20099;-83
2022/05/25 09:15:08;;;;;;;5.88;3.25;;;20.50;89.20;;;;;;5020109;28;20124;-83
2022/05/25 09:17:53;;;;;;;7.15;3.60;;;20.60;90.80;;;;;;5018605;28;20472;-83
2022/05/25 09:20:26;;;;;;;5.43;3.40;;;20.50;91.00;;;;;;5019673;28;20053;-83
2022/05/25 09:22:53;;;;;;;6.70;3.85;;;20.50;91.90;;;;;;5036112;28;20120;-83
2022/05/25 09:25:21;;;;;;;6.40;3.60;;;20.60;93.10;;;;;;5019295;28;20033;-83
2022/05/25 09:27:54;;;;;;;6.43;3.63;;;20.80;94.60;;;;;;5019492;28;20049;-83
2022/05/25 09:30:20;;;;;;;6.85;3.47;;;21.00;93.50;;;;;;5036325;28;20037;-83
2022/05/25 09:32:54;;;;;;;6.78;4.00;;;21.00;91.10;;;;;;5003085;28;20038;-83
2022/05/25 09:35:31;;;;;;;6.95;4.05;;;20.90;92.00;;;;;;5036001;28;20033;-83
2022/05/25 09:38:05;;;;;;;6.70;3.38;;;20.80;90.40;;;;;;5041343;28;20049;-83
2022/05/25 09:40:33;;;;;;;5.63;3.35;;;20.70;92.20;;;;;;5039690;28;20087;-83
2022/05/25 09:43:02;;;;;;;6.57;3.78;;;20.60;90.50;;;;;;5037802;28;20044;-83
2022/05/25 09:45:40;;;;;;;7.50;3.70;;;20.40;91.60;;;;;;5039892;28;20049;-83
2022/05/25 09:48:17;;;;;;;5.80;3.50;;;20.20;93.90;;;;;;5038562;28;20052;-83
2022/05/25 09:50:50;;;;;;;7.30;3.88;;;20.20;94.00;;;;;;5056143;28;20081;-83
2022/05/25 09:53:17;;;;;;;5.85;3.63;;;20.40;92.80;;;;;;5055849;28;20037;-83
2022/05/25 09:55:49;;;;;;;6.35;3.30;;;20.50;92.50;;;;;;5056019;28;20496;-83
2022/05/25 09:58:24;;;;;;;6.53;3.65;;;20.40;94.10;;;;;;5039018;28;20051;-83
2022/05/25 10:01:02;;;;;;;7.18;3.60;;;20.80;93.00;;;;;;5055808;28;20045;-83
2022/05/25 10:03:40;;;;;;;6.57;3.60;;;20.90;94.20;;;;;;5038808;28;20167;-83
2022/05/25 10:06:40;;;;;;;9.95;3.70;;;21.00;91.80;;;;;;5055225;28;20118;-83
2022/05/25 10:09:32;;;;;;;7.00;4.20;;;21.00;91.00;;;;;;5055750;28;20128;-83
2022/05/25 10:11:58;;;;;;;;;;;21.10;91.50;;;;;;5018829;28;20050;-83
2022/05/25 10:14:37;;;;;;;7.03;3.90;;;21.20;91.30;;;;;;5035031;28;20003;-83
2022/05/25 10:17:13;;;;;;;10.50;4.13;;;21.10;90.30;;;;;;5034220;28;20044;-83
2022/05/25 10:19:50;;;;;;;6.63;3.53;;;21.00;88.90;;;;;;5035061;28;20087;-83
2022/05/25 10:22:44;;;;;;;7.25;3.80;;;20.60;90.40;;;;;;5018784;28;20045;-83
2022/05/25 10:25:39;;;;;;;7.70;3.40;;;20.40;90.30;;;;;;5017940;28;20107;-83
2022/05/25 10:28:51;;;;;;;6.43;3.60;;;20.30;91.80;;;;;;5018470;28;20041;-83
2022/05/25 10:37:17;;;;;;;6.22;3.50;;;19.80;96.30;;;;;;5034730;28;19993;-83
2022/05/25 10:39:54;;;;;;;5.95;3.20;;;19.90;94.70;;;;;;5018442;28;20041;-83
2022/05/25 10:42:30;;;;;;;6.85;3.00;;;20.00;94.90;;;;;;5018449;28;20539;-83
2022/05/25 10:45:10;;;;;;;5.75;3.10;;;20.30;95.40;;;;;;5018386;28;20073;-83
2022/05/25 10:47:57;;;;;;;7.85;2.95;;;20.50;91.70;;;;;;5017566;28;20048;-83
2022/05/25 10:50:25;;;;;;;5.97;3.05;;;20.60;91.80;;;;;;5038075;28;20043;-83
2022/05/25 10:53:04;;;;;;;6.13;3.08;;;20.40;90.40;;;;;;5037726;28;20472;-83
2022/05/25 10:55:45;;;;;;;6.68;2.80;;;20.20;88.40;;;;;;5054985;28;20472;-83
2022/05/25 10:58:16;;;;;;;5.70;2.70;;;19.90;87.40;;;;;;5037872;28;20128;-82
2022/05/25 11:00:46;;;;;;;;;;;19.50;89.50;;;;;;5054860;28;20290;-83
2022/05/25 11:03:23;;;;;;;8.15;3.67;;;19.10;94.90;;;;;;5053655;28;19923;-83
2022/05/25 11:05:57;;;;;;;7.45;2.97;;;19.00;98.00;;;;;;5054074;28;20045;-83
2022/05/25 11:08:39;;;;;;;6.93;2.72;;;19.00;98.70;;;;;;5037530;28;20037;-83
2022/05/25 11:11:17;;;;;;;6.93;2.90;;;18.80;98.70;;;;;;5054101;28;20121;-83
2022/05/25 11:14:02;;;;;;;5.65;2.47;;;19.10;99.90;;;;;;5053893;28;20037;-83
2022/05/25 11:16:31;;;;;;;5.80;2.30;;;19.30;99.90;;;;;;5036908;28;20106;-83
2022/05/25 11:19:14;;;;;;;6.10;2.60;;;19.60;99.90;;;;;;5037373;28;20602;-83
2022/05/25 11:21:55;;;;;;;5.47;2.60;;;19.80;99.40;;;;;;5037045;28;20061;-83
2022/05/25 11:24:49;;;;;;;7.50;2.70;;;20.20;98.30;;;;;;5037381;28;20049;-83
2022/05/25 11:27:50;;;;;;;7.72;2.80;;;20.50;96.80;;;;;;5053326;28;20083;-82
2022/05/25 11:30:26;;;;;;;7.63;3.30;;;20.70;97.60;;;;;;5037346;28;20120;-82
2022/05/25 11:33:01;;;;;;;6.30;3.47;;;20.90;97.70;;;;;;5036761;28;20040;-82
2022/05/25 11:35:54;;;;;;;7.20;4.10;;;21.10;96.90;;;;;;5037156;28;20049;-82
2022/05/25 11:38:48;;;;;;;7.63;3.58;;;21.40;93.00;;;;;;5047167;28;20065;-82
2022/05/25 11:41:48;;;;;;;7.55;3.88;;;21.50;92.50;;;;;;5017151;28;20048;-83
2022/05/25 11:45:03;;;;;;;6.32;3.42;;;21.40;91.90;;;;;;5028927;28;20571;-83
2022/05/25 11:47:56;;;;;;;7.90;3.90;;;21.30;88.00;;;;;;5015731;28;20060;-83
2022/05/25 11:51:02;;;;;;;7.30;3.90;;;21.20;87.70;;;;;;5016034;28;20126;-83
2022/05/25 11:53:56;;;;;;;6.57;3.83;;;21.00;90.30;;;;;;5017120;28;20099;-83
2022/05/25 11:56:41;;;;;;;7.38;4.30;;;20.80;86.50;;;;;;5033534;28;20049;-83
2022/05/25 11:59:22;;;;;;;7.38;3.70;;;20.50;90.40;;;;;;5033676;28;20043;-83
2022/05/25 12:02:18;;;;;;;7.90;3.90;;;20.20;90.60;;;;;;5016436;28;20073;-83
2022/05/25 12:04:55;;;;;;;6.47;4.00;;;20.00;90.40;;;;;;5033060;28;20041;-83
2022/05/25 12:07:38;;;;;;;7.70;3.90;;;19.90;91.40;;;;;;5033321;28;20042;-83
2022/05/25 12:10:22;;;;;;;7.00;4.20;;;19.80;91.80;;;;;;5023194;28;20400;-83
2022/05/25 12:12:55;;;;;;;7.53;4.13;;;19.80;87.30;;;;;;5036464;28;20045;-84
2022/05/25 12:15:23;;;;;;;7.50;4.22;;;19.70;90.00;;;;;;5032646;28;20090;-84
2022/05/25 12:18:16;;;;;;;7.35;4.43;;;19.60;86.20;;;;;;5052320;28;20045;-83
2022/05/25 12:20:55;;;;;;;7.32;4.63;;;19.40;90.00;;;;;;5029953;28;20057;-83
2022/05/25 12:23:26;;;;;;;8.30;5.10;;;19.20;87.10;;;;;;5016898;28;20045;-83
2022/05/25 12:25:56;;;;;;;9.13;5.15;;;18.90;87.20;;;;;;5049886;28;20048;-83
2022/05/25 12:28:26;;;;;;;8.02;5.30;;;18.80;92.10;;;;;;5049872;28;20107;-83
2022/05/25 12:30:57;;;;;;;8.27;5.45;;;18.20;93.30;;;;;;5033401;28;20485;-83
2022/05/25 12:33:25;;;;;;;8.73;6.18;;;18.00;97.30;;;;;;5016452;28;20433;-83
2022/05/25 12:35:53;;;;;;;9.35;7.13;;;17.70;99.70;;;;;;5049118;28;20045;-83
2022/05/25 12:38:31;;;;;;;13.15;6.50;;;17.50;99.90;;;;;;5032883;28;20040;-83
2022/05/25 12:41:28;;;;;;;8.95;6.28;;;17.50;99.90;;;;;;5033252;28;20044;-83
2022/05/25 12:43:56;;;;;;;10.43;6.88;;;17.60;99.90;;;;;;5016572;28;20040;-83
2022/05/25 12:49:40;;;;;;;8.18;5.78;;;17.90;99.90;;;;;;5032337;28;20041;-83
2022/05/25 12:52:27;;;;;;;8.10;5.78;;;18.20;99.90;;;;;;5032459;28;20042;-83
2022/05/25 12:55:00;;;;;;;7.47;4.95;;;18.40;99.90;;;;;;5034396;28;20432;-83
2022/05/25 12:57:40;;;;;;;8.23;4.30;;;18.40;97.50;;;;;;5028096;28;20056;-83
2022/05/25 13:00:20;;;;;;;7.55;4.10;;;18.60;98.20;;;;;;5044196;28;20166;-85
2022/05/25 13:02:46;;;;;;;8.00;4.60;;;18.90;96.90;;;;;;5045575;28;20120;-85
2022/05/25 13:05:44;;;;;;;7.50;4.43;;;19.00;93.50;;;;;;5042410;28;20083;-85
2022/05/25 13:08:30;;;;;;;7.78;4.63;;;19.10;93.60;;;;;;5064579;28;20053;-81
2022/05/25 13:10:59;;;;;;;8.23;4.10;;;19.00;94.20;;;;;;5038880;28;20124;-83
2022/05/25 13:13:39;;;;;;;7.18;3.85;;;18.90;94.70;;;;;;5036418;28;20048;-83
2022/05/25 13:16:05;;;;;;;9.23;3.30;;;19.00;95.50;;;;;;5053217;28;20508;-83
2022/05/25 13:18:47;;;;;;;7.05;3.40;;;18.90;95.20;;;;;;5039953;28;20044;-82
2022/05/25 13:21:40;;;;;;;7.35;3.22;;;18.90;93.40;;;;;;5039717;28;20060;-82
2022/05/25 13:24:27;;;;;;;6.53;2.60;;;19.00;94.90;;;;;;5033891;28;20048;-84
2022/05/25 13:27:16;;;;;;;9.48;2.80;;;19.20;97.50;;;;;;5019738;28;20118;-83
2022/05/25 13:30:00;;;;;;;8.43;2.60;;;19.50;93.40;;;;;;5000339;28;20052;-82
2022/05/25 13:32:54;;;;;;;7.40;2.50;;;19.60;93.50;;;;;;5035774;28;20037;-82
2022/05/25 13:35:22;;;;;;;6.35;2.20;;;19.60;91.90;;;;;;5036184;28;20042;-84
2022/05/25 13:38:05;;;;;;;6.90;2.00;;;19.50;89.00;;;;;;5019525;28;20049;-83
2022/05/25 13:40:39;;;;;;;6.60;1.98;;;19.50;88.70;;;;;;5036148;28;20092;-83